createdAt,value
2023-03-26T11:26:56.944Z,10.03
2023-03-26T11:29:55.819Z,10.03
2023-03-26T11:32:35.656Z,10.06
2023-03-26T11:35:17.088Z,10.07
2023-03-26T11:38:15.986Z,10.10
2023-03-26T11:40:53.511Z,10.08
2023-03-26T11:43:39.315Z,10.11
2023-03-26T11:46:20.691Z,10.25
2023-03-26T11:48:58.318Z,10.29
2023-03-26T11:54:27.738Z,10.38
2023-03-26T11:57:16.345Z,10.39
2023-03-26T11:59:57.511Z,10.30
2023-03-26T12:02:34.533Z,10.37
2023-03-26T12:05:26.690Z,10.52
2023-03-26T12:07:58.965Z,10.69
2023-03-26T12:10:38.039Z,10.80
2023-03-26T12:13:38.215Z,10.93
2023-03-26T12:16:14.291Z,11.08
2023-03-26T12:18:46.902Z,11.10
2023-03-26T12:21:22.412Z,11.10
2023-03-26T12:24:02.261Z,11.12
2023-03-26T12:26:44.068Z,11.06
2023-03-26T12:29:16.296Z,11.21
2023-03-26T12:31:58.198Z,11.28
2023-03-26T12:34:35.015Z,11.32
2023-03-26T12:37:10.128Z,11.36
2023-03-26T12:40:09.379Z,11.45
2023-03-26T12:44:45.117Z,11.58
2023-03-26T12:45:35.031Z,11.61
2023-03-26T12:48:08.901Z,11.72
2023-03-26T12:50:59.382Z,11.85
2023-03-26T12:53:47.464Z,11.89
2023-03-26T12:56:36.559Z,12.03
2023-03-26T12:59:22.533Z,11.90
2023-03-26T13:02:04.509Z,12.11
2023-03-26T13:05:06.404Z,11.99
2023-03-26T13:07:54.872Z,12.03
2023-03-26T13:10:52.260Z,12.24
2023-03-26T13:13:50.430Z,12.22
2023-03-26T13:16:33.711Z,12.21
2023-03-26T13:19:10.949Z,12.11
2023-03-26T13:21:57.491Z,11.88
2023-03-26T13:24:40.080Z,11.79
2023-03-26T13:27:31.284Z,11.78
2023-03-26T13:30:08.464Z,11.70
2023-03-26T13:32:57.649Z,11.70
2023-03-26T13:35:39.619Z,11.64
2023-03-26T13:38:21.534Z,11.62
2023-03-26T13:41:03.797Z,11.58
2023-03-26T13:43:52.954Z,11.46
2023-03-26T13:46:34.012Z,11.43
2023-03-26T13:49:13.233Z,11.47
2023-03-26T13:51:48.260Z,11.43
2023-03-26T13:54:25.519Z,11.54
2023-03-26T13:57:02.744Z,11.54
2023-03-26T13:59:46.813Z,11.55
2023-03-26T14:02:26.958Z,11.65
2023-03-26T14:05:05.043Z,11.71
2023-03-26T14:07:44.223Z,11.66
2023-03-26T14:10:20.035Z,11.41
2023-03-26T14:13:01.609Z,11.30
2023-03-26T14:15:44.569Z,11.17
2023-03-26T14:18:34.400Z,11.06
2023-03-26T14:21:29.667Z,10.93
2023-03-26T14:24:30.607Z,10.85
2023-03-26T14:27:22.216Z,10.74
2023-03-26T14:30:08.850Z,10.72
2023-03-26T14:33:06.107Z,10.63
2023-03-26T14:35:45.660Z,10.56
2023-03-26T14:38:48.086Z,10.59
2023-03-26T14:41:26.674Z,10.52
2023-03-26T14:44:48.588Z,10.48
2023-03-26T14:47:21.896Z,10.50
2023-03-26T14:50:39.091Z,10.43
2023-03-26T14:53:21.579Z,10.30
2023-03-26T14:56:24.243Z,10.16
2023-03-26T14:59:33.057Z,10.09
2023-03-26T15:02:45.224Z,9.92
2023-03-26T15:06:01.952Z,9.81
2023-03-26T15:09:14.220Z,9.73
2023-03-26T15:12:12.657Z,9.71
2023-03-26T15:15:20.055Z,9.74
2023-03-26T15:18:44.119Z,9.70
2023-03-26T15:21:46.074Z,9.69
2023-03-26T15:25:00.412Z,9.77
2023-03-26T15:28:02.248Z,9.89
2023-03-26T15:31:06.744Z,10.01
2023-03-26T15:34:21.502Z,10.09
2023-03-26T15:37:23.305Z,10.15
2023-03-26T15:40:17.352Z,10.22
2023-03-26T15:43:07.268Z,10.27
2023-03-26T15:45:40.686Z,10.36
2023-03-26T15:48:39.264Z,10.34
2023-03-26T15:51:46.439Z,10.36
2023-03-26T15:54:33.307Z,10.29
2023-03-26T15:57:28.846Z,10.24
2023-03-26T16:00:24.017Z,10.25
2023-03-26T16:03:20.550Z,10.19
2023-03-26T16:06:19.755Z,10.08
2023-03-26T16:09:09.003Z,10.04
2023-03-26T16:11:55.068Z,10.00
2023-03-26T16:14:41.157Z,9.97
2023-03-26T16:17:17.593Z,9.94
2023-03-26T16:20:01.072Z,9.98
2023-03-26T16:23:00.277Z,9.98
2023-03-26T16:25:36.483Z,9.91
2023-03-26T16:28:27.228Z,9.91
2023-03-26T16:31:37.901Z,9.84
2023-03-26T16:34:31.579Z,9.80
2023-03-26T16:37:02.365Z,9.80
2023-03-26T16:39:45.585Z,9.76
2023-03-26T16:42:41.261Z,9.74
2023-03-26T16:45:25.900Z,9.72
2023-03-26T16:48:09.276Z,9.74
2023-03-26T16:50:49.536Z,9.78
2023-03-26T16:53:31.128Z,9.83
2023-03-26T16:56:12.833Z,9.84
2023-03-26T16:58:59.382Z,9.87
2023-03-26T17:01:43.769Z,9.91
2023-03-26T17:04:23.372Z,9.89
2023-03-26T17:07:19.617Z,9.89
2023-03-26T17:10:02.006Z,9.84
2023-03-26T17:12:45.968Z,9.88
2023-03-26T17:15:29.478Z,9.89
2023-03-26T17:18:25.226Z,9.88
2023-03-26T17:21:07.437Z,9.88
2023-03-26T17:24:15.524Z,9.82
2023-03-26T17:27:08.445Z,9.83
2023-03-26T17:30:08.548Z,9.83
2023-03-26T17:33:00.806Z,9.79
2023-03-26T17:35:47.034Z,9.75
2023-03-26T17:39:01.663Z,9.72
2023-03-26T17:42:15.052Z,9.79
2023-03-26T17:44:52.558Z,9.90
2023-03-26T17:47:34.166Z,9.91
2023-03-26T17:50:16.518Z,9.82
2023-03-26T17:52:59.327Z,9.68
2023-03-26T17:55:33.434Z,9.58
2023-03-26T17:58:08.126Z,9.53
2023-03-26T18:00:44.139Z,9.36
2023-03-26T18:03:23.055Z,9.28
2023-03-26T18:06:02.134Z,9.25
2023-03-26T18:09:08.605Z,9.16
2023-03-26T18:12:07.081Z,9.08
2023-03-26T18:15:19.839Z,8.98
2023-03-26T18:17:50.951Z,8.93
2023-03-26T18:20:26.327Z,8.89
2023-03-26T18:22:56.722Z,8.86
2023-03-26T18:25:30.620Z,8.77
2023-03-26T18:28:02.643Z,8.68
2023-03-26T18:30:35.612Z,8.65
2023-03-26T18:33:14.048Z,8.60
2023-03-26T18:35:47.630Z,8.56
2023-03-26T18:38:36.121Z,8.53
2023-03-26T18:41:11.131Z,8.42
2023-03-26T18:43:44.522Z,8.35
2023-03-26T18:46:18.413Z,8.31
2023-03-26T18:48:50.246Z,8.29
2023-03-26T18:51:23.189Z,8.24
2023-03-26T18:54:00.520Z,8.23
2023-03-26T18:56:35.197Z,8.19
2023-03-26T18:59:12.253Z,8.15
2023-03-26T19:01:54.198Z,8.12
2023-03-26T19:04:25.864Z,8.07
2023-03-26T19:07:00.147Z,8.06
2023-03-26T19:09:34.013Z,8.00
2023-03-26T19:12:10.564Z,8.00
2023-03-26T19:14:57.209Z,7.98
2023-03-26T19:17:37.226Z,8.00
2023-03-26T19:20:10.393Z,7.94
2023-03-26T19:22:42.438Z,7.92
2023-03-26T19:25:24.217Z,7.93
2023-03-26T19:27:56.889Z,7.93
2023-03-26T19:30:33.799Z,7.90
2023-03-26T19:33:18.554Z,7.90
2023-03-26T19:35:54.661Z,7.92
2023-03-26T19:38:30.294Z,7.85
2023-03-26T19:41:01.025Z,7.85
2023-03-26T19:43:32.727Z,7.89
2023-03-26T19:46:03.188Z,7.86
2023-03-26T19:48:45.709Z,7.87
2023-03-26T19:51:23.701Z,7.86
2023-03-26T19:53:57.013Z,7.81
2023-03-26T19:56:29.057Z,7.84
2023-03-26T19:59:00.503Z,7.86
2023-03-26T20:01:34.504Z,7.88
2023-03-26T20:04:13.819Z,7.82
2023-03-26T20:06:50.218Z,7.87
2023-03-26T20:09:23.422Z,7.91
2023-03-26T20:11:55.899Z,7.85
2023-03-26T20:14:26.758Z,7.84
2023-03-26T20:16:57.068Z,7.80
2023-03-26T20:19:29.907Z,7.80
2023-03-26T20:22:00.598Z,7.82
2023-03-26T20:24:31.460Z,7.81
2023-03-26T20:27:03.549Z,7.82
2023-03-26T20:29:33.463Z,7.76
2023-03-26T20:32:06.578Z,7.79
2023-03-26T20:34:40.223Z,7.76
2023-03-26T20:37:10.792Z,7.77
2023-03-26T20:39:42.053Z,7.77
2023-03-26T20:42:19.076Z,7.74
2023-03-26T20:44:49.250Z,7.93
2023-03-26T20:47:21.208Z,8.14
2023-03-26T20:49:54.110Z,8.16
2023-03-26T20:52:26.063Z,8.27
2023-03-26T20:54:59.087Z,8.30
2023-03-26T20:57:30.362Z,8.30
2023-03-26T21:00:01.323Z,8.29
2023-03-26T21:02:34.082Z,8.33
2023-03-26T21:05:14.973Z,8.39
2023-03-26T21:07:48.255Z,8.41
2023-03-26T21:10:20.237Z,8.41
2023-03-26T21:12:59.637Z,8.42
2023-03-26T21:15:32.849Z,8.44
2023-03-26T21:18:08.438Z,8.45
2023-03-26T21:20:48.184Z,8.46
2023-03-26T21:23:33.491Z,8.42
2023-03-26T21:26:18.426Z,8.44
2023-03-26T21:28:52.436Z,8.45
2023-03-26T21:31:25.130Z,8.40
2023-03-26T21:33:58.318Z,8.33
2023-03-26T21:36:33.548Z,8.35
2023-03-26T21:39:06.621Z,8.33
2023-03-26T21:41:47.876Z,8.34
2023-03-26T21:44:21.686Z,8.32
2023-03-26T21:46:55.141Z,8.28
2023-03-26T21:49:26.050Z,8.28
2023-03-26T21:52:00.218Z,8.28
2023-03-26T21:54:32.717Z,8.31
2023-03-26T21:57:34.098Z,8.29
2023-03-26T22:00:16.572Z,8.29
2023-03-26T22:03:01.779Z,8.27
2023-03-26T22:05:45.317Z,8.21
2023-03-26T22:08:30.072Z,8.21
2023-03-26T22:11:01.157Z,8.21
2023-03-26T22:13:35.634Z,8.19
2023-03-26T22:16:07.815Z,8.20
2023-03-26T22:18:43.824Z,8.20
2023-03-26T22:21:21.311Z,8.14
2023-03-26T22:23:58.263Z,8.12
2023-03-26T22:26:30.316Z,8.18
2023-03-26T22:29:02.437Z,8.08
2023-03-26T22:31:34.963Z,8.13
2023-03-26T22:34:07.861Z,8.17
2023-03-26T22:36:39.847Z,7.96
2023-03-26T22:39:14.147Z,7.88
2023-03-26T22:41:44.581Z,7.83
2023-03-26T22:44:20.209Z,7.81
2023-03-26T22:46:52.894Z,7.77
2023-03-26T22:49:28.234Z,7.72
2023-03-26T22:52:02.094Z,7.66
2023-03-26T22:54:36.744Z,7.64
2023-03-26T22:57:07.482Z,7.63
2023-03-26T22:59:39.820Z,7.59
2023-03-26T23:02:12.569Z,7.59
2023-03-26T23:04:42.875Z,7.53
2023-03-26T23:07:14.735Z,7.46
2023-03-26T23:09:50.635Z,7.44
2023-03-26T23:12:24.716Z,7.43
2023-03-26T23:14:55.972Z,7.40
2023-03-26T23:17:26.054Z,7.33
2023-03-26T23:19:57.752Z,7.31
2023-03-26T23:22:27.777Z,7.32
2023-03-26T23:25:02.170Z,7.29
2023-03-26T23:27:34.671Z,7.22
2023-03-26T23:30:05.038Z,7.19
2023-03-26T23:32:38.085Z,7.19
2023-03-26T23:35:10.414Z,7.16
2023-03-26T23:37:43.367Z,7.13
2023-03-26T23:40:19.218Z,7.11
2023-03-26T23:42:51.819Z,7.08
2023-03-26T23:45:22.381Z,7.06
2023-03-26T23:47:52.447Z,7.03
2023-03-26T23:50:25.712Z,7.01
2023-03-26T23:52:57.311Z,7.00
2023-03-26T23:55:30.480Z,7.01
2023-03-26T23:58:00.637Z,6.99
